createdAt,value
2023-05-05T01:03:25.666Z,5.85
2023-05-05T01:10:57.949Z,4.60
2023-05-05T01:14:02.434Z,5.37
2023-05-05T01:16:34.199Z,5.70
2023-05-05T01:28:34.968Z,5.00
2023-05-05T01:46:36.050Z,4.93
2023-05-05T01:49:06.198Z,5.50
2023-05-05T03:06:44.394Z,4.97
2023-05-05T03:41:10.962Z,4.87
2023-05-05T04:00:21.918Z,5.80
2023-05-05T04:05:54.162Z,5.57
2023-05-05T04:08:30.900Z,5.93
2023-05-05T04:20:31.337Z,5.90
2023-05-05T05:16:35.700Z,5.73
2023-05-05T05:19:18.608Z,5.67
2023-05-05T05:27:52.281Z,6.27
2023-05-05T05:30:37.818Z,5.67
2023-05-05T05:33:23.476Z,6.40
2023-05-05T05:35:55.253Z,7.30
2023-05-05T05:38:25.435Z,6.90
2023-05-05T05:40:56.950Z,6.87
2023-05-05T05:43:26.153Z,6.77
2023-05-05T05:45:53.524Z,6.93
2023-05-05T05:48:24.646Z,14.10
2023-05-05T05:50:52.705Z,7.33
2023-05-05T05:53:20.085Z,7.43
2023-05-05T05:55:47.550Z,6.90
2023-05-05T05:58:17.086Z,7.10
2023-05-05T06:04:05.676Z,6.97
2023-05-05T06:06:33.406Z,6.77
2023-05-05T06:09:01.381Z,6.50
2023-05-05T06:11:29.794Z,7.80
2023-05-05T06:13:57.584Z,7.63
2023-05-05T06:16:25.354Z,8.00
2023-05-05T06:18:53.002Z,8.07
2023-05-05T06:21:20.767Z,7.80
2023-05-05T06:23:48.280Z,7.17
2023-05-05T06:26:16.802Z,7.77
2023-05-05T06:28:44.598Z,8.13
2023-05-05T06:31:12.900Z,6.97
2023-05-05T06:33:40.519Z,8.87
2023-05-05T06:36:08.036Z,8.03
2023-05-05T06:38:35.327Z,7.47
2023-05-05T06:41:02.607Z,7.23
2023-05-05T06:43:30.606Z,6.93
2023-05-05T06:46:01.229Z,7.20
2023-05-05T06:48:28.890Z,7.00
2023-05-05T06:50:57.088Z,6.90
2023-05-05T06:53:24.407Z,6.97
2023-05-05T06:55:51.835Z,6.97
2023-05-05T06:58:19.165Z,7.67
2023-05-05T07:00:47.351Z,6.83
2023-05-05T07:03:14.776Z,7.37
2023-05-05T07:05:42.093Z,7.07
2023-05-05T07:08:11.235Z,6.73
2023-05-05T07:10:38.943Z,7.57
2023-05-05T07:13:10.651Z,7.37
2023-05-05T07:15:46.140Z,6.20
2023-05-05T07:18:14.464Z,7.82
2023-05-05T07:20:43.757Z,6.57
2023-05-05T07:23:11.276Z,6.30
2023-05-05T07:25:38.786Z,6.38
2023-05-05T07:28:06.386Z,6.28
2023-05-05T07:30:33.978Z,7.00
2023-05-05T07:33:01.377Z,5.70
2023-05-05T07:35:29.496Z,6.28
2023-05-05T07:37:56.748Z,6.32
2023-05-05T07:40:24.069Z,5.88
2023-05-05T07:42:51.768Z,6.05
2023-05-05T07:45:19.233Z,5.85
2023-05-05T07:47:46.664Z,6.40
2023-05-05T07:50:14.099Z,5.68
2023-05-05T07:52:46.779Z,5.38
2023-05-05T07:55:19.137Z,4.97
2023-05-05T07:57:46.937Z,5.40
2023-05-05T08:00:14.733Z,5.30
2023-05-05T08:02:42.223Z,5.07
2023-05-05T08:05:11.657Z,5.15
2023-05-05T08:07:41.226Z,4.72
2023-05-05T08:10:10.604Z,5.00
2023-05-05T08:12:38.493Z,5.00
2023-05-05T08:15:07.190Z,5.07
2023-05-05T08:17:49.156Z,5.05
2023-05-05T08:20:17.738Z,4.85
2023-05-05T08:22:46.052Z,4.80
2023-05-05T08:25:14.494Z,5.15
2023-05-05T08:27:43.138Z,5.30
2023-05-05T08:30:11.727Z,5.13
2023-05-05T08:32:39.084Z,4.47
2023-05-05T08:35:07.589Z,4.40
2023-05-05T08:37:36.019Z,4.28
2023-05-05T08:40:03.546Z,5.30
2023-05-05T08:42:38.142Z,4.80
2023-05-05T08:45:08.518Z,4.88
2023-05-05T08:47:37.208Z,4.93
2023-05-05T08:50:08.358Z,4.43
2023-05-05T08:52:41.340Z,4.20
2023-05-05T08:55:58.493Z,4.60
2023-05-05T08:58:28.744Z,4.68
2023-05-05T09:00:57.282Z,5.10
2023-05-05T09:03:26.923Z,5.05
2023-05-05T09:05:54.456Z,5.57
2023-05-05T09:08:22.948Z,5.70
2023-05-05T09:10:51.863Z,4.80
2023-05-05T09:13:20.357Z,5.00
2023-05-05T09:15:47.735Z,5.28
2023-05-05T09:18:15.185Z,5.25
2023-05-05T09:20:42.551Z,5.10
2023-05-05T09:23:17.790Z,4.90
2023-05-05T09:26:09.046Z,4.05
2023-05-05T09:28:37.356Z,6.38
2023-05-05T09:31:15.901Z,4.30
2023-05-05T09:33:43.705Z,5.47
2023-05-05T09:36:12.170Z,4.28
2023-05-05T09:38:39.594Z,5.43
2023-05-05T09:41:06.865Z,5.20
2023-05-05T09:43:51.896Z,5.13
2023-05-05T09:46:19.489Z,4.28
2023-05-05T09:48:47.077Z,4.15
2023-05-05T09:51:14.892Z,3.97
2023-05-05T09:53:42.868Z,4.28
2023-05-05T09:56:10.441Z,3.90
2023-05-05T09:58:38.029Z,4.30
2023-05-05T10:01:05.771Z,4.47
2023-05-05T10:03:33.219Z,4.43
2023-05-05T10:06:01.242Z,4.88
2023-05-05T10:08:31.963Z,4.32
2023-05-05T10:11:07.193Z,3.85
2023-05-05T10:13:40.911Z,3.72
2023-05-05T10:16:09.581Z,2.60
2023-05-05T10:18:42.606Z,3.15
2023-05-05T10:21:12.721Z,4.90
2023-05-05T10:23:57.358Z,4.38
2023-05-05T10:26:27.504Z,3.45
2023-05-05T10:28:56.458Z,4.20
2023-05-05T10:31:37.376Z,3.00
2023-05-05T10:34:09.019Z,3.83
2023-05-05T10:36:39.039Z,3.45
2023-05-05T10:39:09.232Z,3.08
2023-05-05T10:41:37.579Z,2.50
2023-05-05T10:44:06.583Z,2.63
2023-05-05T10:46:34.018Z,3.25
2023-05-05T10:49:35.476Z,2.90
2023-05-05T10:52:23.779Z,2.78
2023-05-05T10:55:13.574Z,2.67
2023-05-05T10:57:44.399Z,2.40
2023-05-05T11:00:47.085Z,1.90
2023-05-05T11:03:18.808Z,2.05
2023-05-05T11:06:04.663Z,2.95
2023-05-05T11:08:33.306Z,1.98
2023-05-05T11:11:01.620Z,2.23
2023-05-05T11:13:29.492Z,1.85
2023-05-05T11:16:02.102Z,2.42
2023-05-05T11:18:44.361Z,2.13
2023-05-05T11:21:17.649Z,1.80
2023-05-05T11:23:48.925Z,1.50
2023-05-05T11:26:18.012Z,1.30
2023-05-05T11:28:56.495Z,1.67
2023-05-05T11:31:24.933Z,1.70
2023-05-05T11:33:53.039Z,1.40
2023-05-05T11:36:37.088Z,1.45
2023-05-05T11:39:24.127Z,1.40
2023-05-05T11:42:10.053Z,1.40
2023-05-05T11:44:38.570Z,1.80
2023-05-05T11:47:05.835Z,1.40
2023-05-05T11:49:37.963Z,1.20
2023-05-05T11:52:10.411Z,1.50
2023-05-05T11:54:40.500Z,1.65
2023-05-05T11:57:08.976Z,1.70
2023-05-05T11:59:49.519Z,1.40
2023-05-05T12:02:18.311Z,1.60
2023-05-05T12:04:46.904Z,1.40
2023-05-05T12:07:19.384Z,1.25
2023-05-05T12:09:48.403Z,1.20
2023-05-05T12:12:16.397Z,1.53
2023-05-05T12:14:54.126Z,1.40
2023-05-05T12:17:23.145Z,1.75
2023-05-05T12:19:55.163Z,1.52
2023-05-05T12:22:24.741Z,1.75
2023-05-05T12:24:56.994Z,1.42
2023-05-05T12:27:26.287Z,1.70
2023-05-05T12:29:55.133Z,1.88
2023-05-05T12:32:24.565Z,1.63
2023-05-05T12:34:54.393Z,1.80
2023-05-05T12:37:22.655Z,1.90
2023-05-05T12:39:50.674Z,1.23
2023-05-05T12:42:18.876Z,1.58
2023-05-05T12:44:46.759Z,1.43
2023-05-05T12:47:14.623Z,1.67
2023-05-05T12:49:52.577Z,1.70
2023-05-05T12:52:20.920Z,1.70
2023-05-05T12:54:54.738Z,1.60
2023-05-05T12:57:23.063Z,1.40
2023-05-05T12:59:51.642Z,1.70
2023-05-05T13:02:19.904Z,1.75
2023-05-05T13:04:50.309Z,2.05
2023-05-05T13:07:19.714Z,1.60
2023-05-05T13:09:51.089Z,1.75
2023-05-05T13:12:18.980Z,1.50
2023-05-05T13:14:46.872Z,1.70
2023-05-05T13:17:14.776Z,1.60
2023-05-05T13:19:45.930Z,1.60
2023-05-05T13:22:13.657Z,1.88
2023-05-05T13:24:51.611Z,1.67
2023-05-05T13:27:20.406Z,2.00
2023-05-05T13:29:47.902Z,1.40
2023-05-05T13:32:15.460Z,1.50
2023-05-05T13:34:43.984Z,1.77
2023-05-05T13:37:11.376Z,2.03
2023-05-05T13:39:38.900Z,1.38
2023-05-05T13:42:06.246Z,1.60
2023-05-05T13:44:33.588Z,1.35
2023-05-05T13:47:01.032Z,1.50
2023-05-05T13:49:28.900Z,1.30
2023-05-05T13:51:56.806Z,1.48
2023-05-05T13:54:25.037Z,1.30
2023-05-05T13:56:52.364Z,1.42
2023-05-05T13:59:19.913Z,1.63
2023-05-05T14:01:47.224Z,1.10
2023-05-05T14:04:14.759Z,1.30
2023-05-05T14:06:42.190Z,1.40
2023-05-05T14:09:09.523Z,1.63
2023-05-05T14:11:36.894Z,1.58
2023-05-05T14:14:04.820Z,1.73
2023-05-05T14:16:32.305Z,1.70
2023-05-05T14:18:59.634Z,1.98
2023-05-05T14:21:27.615Z,1.52
2023-05-05T14:23:55.494Z,1.30
2023-05-05T14:26:22.801Z,1.58
2023-05-05T14:28:50.241Z,1.52
2023-05-05T14:31:17.915Z,1.63
2023-05-05T14:33:45.358Z,1.38
2023-05-05T14:36:14.050Z,1.80
2023-05-05T14:38:42.764Z,1.37
2023-05-05T14:41:10.207Z,1.70
2023-05-05T14:43:37.605Z,1.35
2023-05-05T14:46:07.096Z,1.48
2023-05-05T14:48:35.445Z,1.80
2023-05-05T14:51:03.050Z,1.95
2023-05-05T14:53:30.745Z,1.75
2023-05-05T14:55:58.152Z,2.05
2023-05-05T14:58:25.577Z,1.70
2023-05-05T15:00:54.444Z,2.00
2023-05-05T15:03:21.901Z,1.85
2023-05-05T15:05:49.719Z,2.27
2023-05-05T15:08:19.148Z,1.90
2023-05-05T15:10:46.996Z,1.85
2023-05-05T15:13:14.580Z,1.77
2023-05-05T15:15:42.066Z,1.95
2023-05-05T15:18:09.308Z,2.00
2023-05-05T15:20:37.307Z,3.33
2023-05-05T15:23:04.673Z,2.73
2023-05-05T15:25:32.006Z,2.20
2023-05-05T15:28:00.720Z,2.20
2023-05-05T15:30:28.514Z,1.97
2023-05-05T15:32:56.477Z,1.93
2023-05-05T15:35:25.403Z,1.77
2023-05-05T15:37:54.279Z,1.90
2023-05-05T15:40:21.750Z,1.77
2023-05-05T15:42:49.809Z,1.80
2023-05-05T15:45:17.445Z,1.70
2023-05-05T15:47:44.888Z,1.77
2023-05-05T15:50:14.019Z,1.60
2023-05-05T15:52:41.389Z,1.80
2023-05-05T15:55:09.901Z,1.90
2023-05-05T15:57:39.992Z,1.80
2023-05-05T16:00:09.255Z,1.90
2023-05-05T16:02:37.744Z,2.07
2023-05-05T16:05:05.426Z,2.30
2023-05-05T16:07:32.798Z,2.10
2023-05-05T16:10:00.248Z,2.20
2023-05-05T16:12:27.785Z,2.00
2023-05-05T16:14:55.678Z,1.90
2023-05-05T16:17:23.257Z,1.97
2023-05-05T16:19:50.752Z,2.37
2023-05-05T16:22:18.343Z,2.20
2023-05-05T16:24:45.765Z,2.27
2023-05-05T16:27:13.073Z,2.10
2023-05-05T16:29:40.714Z,2.00
2023-05-05T16:32:07.997Z,2.20
2023-05-05T16:34:35.362Z,1.90
2023-05-05T16:37:02.806Z,2.10
2023-05-05T16:39:30.648Z,2.17
2023-05-05T16:41:58.426Z,2.60
2023-05-05T16:44:26.187Z,2.13
2023-05-05T16:46:53.500Z,2.27
2023-05-05T16:49:21.074Z,2.30
2023-05-05T16:51:48.460Z,1.90
2023-05-05T16:54:15.985Z,2.00
2023-05-05T16:56:43.926Z,1.90
2023-05-05T16:59:11.388Z,2.10
2023-05-05T17:01:38.673Z,2.30
2023-05-05T17:04:06.474Z,2.40
2023-05-05T17:06:34.033Z,2.37
2023-05-05T17:09:01.591Z,2.70
2023-05-05T17:11:28.879Z,2.90
2023-05-05T17:13:56.460Z,3.13
2023-05-05T17:16:23.820Z,2.33
2023-05-05T17:18:54.788Z,2.60
2023-05-05T17:21:22.131Z,3.00
2023-05-05T17:23:50.255Z,2.70
2023-05-05T17:26:17.546Z,2.50
2023-05-05T17:28:44.781Z,2.63
2023-05-05T17:31:12.886Z,2.70
2023-05-05T17:33:40.256Z,2.90
2023-05-05T17:36:07.806Z,2.80
2023-05-05T17:38:35.169Z,2.70
2023-05-05T17:41:02.456Z,3.30
2023-05-05T17:43:29.738Z,3.30
2023-05-05T17:45:57.022Z,2.90
2023-05-05T17:48:24.469Z,2.90
2023-05-05T17:50:51.902Z,2.93
2023-05-05T17:53:19.162Z,3.13
2023-05-05T17:55:46.631Z,3.17
2023-05-05T17:58:14.019Z,3.07
2023-05-05T18:00:41.476Z,3.27
2023-05-05T18:03:08.869Z,2.60
2023-05-05T18:05:36.343Z,3.60
2023-05-05T18:08:04.081Z,3.50
2023-05-05T18:10:31.593Z,3.23
2023-05-05T18:12:58.938Z,2.53
2023-05-05T18:15:26.947Z,3.30
2023-05-05T18:17:54.382Z,3.00
2023-05-05T18:20:21.963Z,2.73
2023-05-05T18:22:49.396Z,3.10
2023-05-05T18:25:17.160Z,2.43
2023-05-05T18:27:44.854Z,2.90
2023-05-05T18:30:13.002Z,2.20
2023-05-05T18:32:40.451Z,2.93
2023-05-05T18:35:08.488Z,3.07
2023-05-05T18:37:36.127Z,2.57
2023-05-05T18:40:03.793Z,2.87
2023-05-05T18:42:31.251Z,2.90
2023-05-05T18:44:58.903Z,2.60
2023-05-05T18:47:26.898Z,2.80
2023-05-05T18:49:54.309Z,2.23
2023-05-05T18:52:21.640Z,2.60
2023-05-05T18:54:49.035Z,3.60
2023-05-05T18:57:16.411Z,2.90
2023-05-05T18:59:43.933Z,2.50
2023-05-05T19:02:11.482Z,2.73
2023-05-05T19:04:41.163Z,2.77
2023-05-05T19:07:08.556Z,3.00
2023-05-05T19:09:36.123Z,3.40
2023-05-05T19:12:03.935Z,2.80
2023-05-05T19:14:31.600Z,3.60
2023-05-05T19:16:59.776Z,3.10
2023-05-05T19:19:27.272Z,2.83
2023-05-05T19:21:54.830Z,2.70
2023-05-05T19:24:22.316Z,2.40
2023-05-05T19:26:50.208Z,2.37
2023-05-05T19:29:17.685Z,2.43
2023-05-05T19:31:45.223Z,2.73
2023-05-05T19:34:12.627Z,2.20
2023-05-05T19:36:39.984Z,2.47
2023-05-05T19:39:08.085Z,3.07
2023-05-05T19:41:35.938Z,2.43
2023-05-05T19:44:03.365Z,2.50
2023-05-05T19:46:30.781Z,2.40
2023-05-05T19:48:58.519Z,2.63
2023-05-05T19:51:26.986Z,2.73
2023-05-05T19:53:54.368Z,2.90
2023-05-05T19:56:22.988Z,2.60
2023-05-05T19:58:59.189Z,2.03
2023-05-05T20:01:28.288Z,2.13
2023-05-05T20:03:56.818Z,2.50
2023-05-05T20:06:24.687Z,2.30
2023-05-05T20:08:52.578Z,2.20
2023-05-05T20:11:21.094Z,2.37
2023-05-05T20:13:49.860Z,2.33
2023-05-05T20:16:17.908Z,2.40
2023-05-05T20:18:45.411Z,2.00
2023-05-05T20:21:12.967Z,2.17
2023-05-05T20:23:42.841Z,2.10
2023-05-05T20:26:11.271Z,2.30
2023-05-05T20:28:39.693Z,2.40
2023-05-05T20:31:08.127Z,2.10
2023-05-05T20:33:35.715Z,2.00
2023-05-05T20:36:03.101Z,1.90
2023-05-05T20:38:30.470Z,2.00
2023-05-05T20:40:57.946Z,1.90
2023-05-05T20:43:25.822Z,2.20
2023-05-05T20:45:53.147Z,1.97
2023-05-05T20:48:20.649Z,2.47
2023-05-05T20:50:48.037Z,1.83
2023-05-05T20:53:18.784Z,2.00
2023-05-05T20:55:46.909Z,2.07
2023-05-05T20:58:14.648Z,1.90
2023-05-05T21:00:42.624Z,2.20
2023-05-05T21:03:10.064Z,1.87
2023-05-05T21:05:39.933Z,1.70
2023-05-05T21:08:07.675Z,1.40
2023-05-05T21:10:36.216Z,1.70
2023-05-05T21:13:04.079Z,2.03
2023-05-05T21:15:31.956Z,1.93
2023-05-05T21:17:59.512Z,1.70
2023-05-05T21:20:26.905Z,1.63
2023-05-05T21:22:56.834Z,1.77
2023-05-05T21:25:24.756Z,2.10
2023-05-05T21:27:52.329Z,1.97
2023-05-05T21:30:19.805Z,1.70
2023-05-05T21:32:47.838Z,2.00
2023-05-05T21:35:15.215Z,1.97
2023-05-05T21:37:43.665Z,1.80
2023-05-05T21:40:14.022Z,1.50
2023-05-05T21:42:42.461Z,2.10
2023-05-05T21:45:11.986Z,2.10
2023-05-05T21:47:39.416Z,1.80
2023-05-05T21:50:08.271Z,2.67
2023-05-05T21:52:35.954Z,2.37
2023-05-05T21:55:03.761Z,1.83
2023-05-05T21:57:31.571Z,1.93
2023-05-05T21:59:58.992Z,2.00
2023-05-05T22:02:26.431Z,1.73
2023-05-05T22:04:54.033Z,1.80
2023-05-05T22:07:21.513Z,1.83
2023-05-05T22:09:48.868Z,1.97
2023-05-05T22:12:17.050Z,1.40
2023-05-05T22:14:44.532Z,2.17
2023-05-05T22:17:12.700Z,2.03
2023-05-05T22:19:40.338Z,1.50
2023-05-05T22:22:07.763Z,1.80
2023-05-05T22:24:35.150Z,2.10
2023-05-05T22:27:02.511Z,2.00
2023-05-05T22:29:29.923Z,2.23
2023-05-05T22:31:57.368Z,1.80
2023-05-05T22:34:25.728Z,2.23
2023-05-05T22:36:53.352Z,2.10
2023-05-05T22:39:20.668Z,1.60
2023-05-05T22:41:48.041Z,1.87
2023-05-05T22:44:15.758Z,2.20
2023-05-05T22:46:43.499Z,2.40
2023-05-05T22:49:10.854Z,1.90
2023-05-05T22:51:39.207Z,1.83
2023-05-05T22:54:06.773Z,1.60
2023-05-05T22:56:34.755Z,2.37
2023-05-05T22:59:02.764Z,1.93
2023-05-05T23:01:30.290Z,1.93
2023-05-05T23:03:57.787Z,2.00
2023-05-05T23:06:25.794Z,1.60
2023-05-05T23:08:53.544Z,2.10
2023-05-05T23:11:21.253Z,2.10
2023-05-05T23:23:14.435Z,1.70
2023-05-05T23:25:42.670Z,2.30
2023-05-05T23:28:10.286Z,2.00
2023-05-05T23:30:37.982Z,2.07
2023-05-05T23:33:05.887Z,1.57
2023-05-05T23:35:33.857Z,1.57
2023-05-05T23:57:31.087Z,2.10
